Terminal Aerodrome Forecast
Issued by NWS

Home | Current Version | Previous Version | Text Only | Print | Product List | Glossary On
Versions: 1 2 3 4 5 6 7 8 9 10 11 12 13 14 15
000
FTUS44 KLZK 232300 RRA
TAFHOT
TAF
KHOT 232343Z 2400/2424 19008KT P6SM SCT250
     FM241500 15010G18KT P6SM VCSH BKN040
     FM241900 23012KT P6SM VCSH OVC035=

USA.gov is the U.S. government's official web portal to all federal, state and local government web resources and services.